sensor_id;sensor_type;location;lat;lon;timestamp;P1;durP1;ratioP1;P2;durP2;ratioP2
3733;SDS011;1882;52.256;8.874;2023-09-19T00:02:29;9.10;;;4.00;;
3733;SDS011;1882;52.256;8.874;2023-09-19T00:04:59;6.40;;;4.70;;
3733;SDS011;1882;52.256;8.874;2023-09-19T00:07:39;9.60;;;4.90;;
3733;SDS011;1882;52.256;8.874;2023-09-19T00:10:07;10.33;;;4.93;;
3733;SDS011;1882;52.256;8.874;2023-09-19T00:12:36;9.57;;;5.00;;
3733;SDS011;1882;52.256;8.874;2023-09-19T00:15:10;9.57;;;4.93;;
3733;SDS011;1882;52.256;8.874;2023-09-19T00:17:40;8.80;;;4.90;;
3733;SDS011;1882;52.256;8.874;2023-09-19T00:20:07;7.50;;;5.13;;
3733;SDS011;1882;52.256;8.874;2023-09-19T00:22:40;6.43;;;4.80;;
3733;SDS011;1882;52.256;8.874;2023-09-19T00:25:08;8.10;;;4.20;;
3733;SDS011;1882;52.256;8.874;2023-09-19T00:27:36;10.53;;;5.00;;
3733;SDS011;1882;52.256;8.874;2023-09-19T00:30:31;9.90;;;4.60;;
3733;SDS011;1882;52.256;8.874;2023-09-19T00:32:59;11.10;;;4.37;;
3733;SDS011;1882;52.256;8.874;2023-09-19T00:35:27;7.80;;;4.97;;
3733;SDS011;1882;52.256;8.874;2023-09-19T00:37:54;8.83;;;4.80;;
3733;SDS011;1882;52.256;8.874;2023-09-19T00:40:31;8.80;;;5.13;;
3733;SDS011;1882;52.256;8.874;2023-09-19T00:42:59;9.07;;;4.77;;
3733;SDS011;1882;52.256;8.874;2023-09-19T00:45:26;14.43;;;4.93;;
3733;SDS011;1882;52.256;8.874;2023-09-19T00:48:00;15.40;;;5.10;;
3733;SDS011;1882;52.256;8.874;2023-09-19T00:50:30;7.20;;;4.83;;
3733;SDS011;1882;52.256;8.874;2023-09-19T00:53:06;8.50;;;4.93;;
3733;SDS011;1882;52.256;8.874;2023-09-19T00:55:34;14.60;;;5.40;;
3733;SDS011;1882;52.256;8.874;2023-09-19T00:58:03;10.13;;;5.10;;
3733;SDS011;1882;52.256;8.874;2023-09-19T01:00:35;9.27;;;5.00;;
3733;SDS011;1882;52.256;8.874;2023-09-19T01:03:02;10.87;;;4.80;;
3733;SDS011;1882;52.256;8.874;2023-09-19T01:05:32;7.63;;;4.67;;
3733;SDS011;1882;52.256;8.874;2023-09-19T01:08:00;8.67;;;5.17;;
3733;SDS011;1882;52.256;8.874;2023-09-19T01:10:34;9.67;;;5.10;;
3733;SDS011;1882;52.256;8.874;2023-09-19T01:18:37;8.20;;;5.00;;
3733;SDS011;1882;52.256;8.874;2023-09-19T01:32:19;13.20;;;6.23;;
3733;SDS011;1882;52.256;8.874;2023-09-19T01:34:49;13.20;;;5.67;;
3733;SDS011;1882;52.256;8.874;2023-09-19T01:37:17;16.07;;;5.50;;
3733;SDS011;1882;52.256;8.874;2023-09-19T01:40:07;8.90;;;5.33;;
3733;SDS011;1882;52.256;8.874;2023-09-19T01:42:43;8.67;;;5.10;;
3733;SDS011;1882;52.256;8.874;2023-09-19T01:45:13;10.70;;;5.23;;
3733;SDS011;1882;52.256;8.874;2023-09-19T01:47:46;13.40;;;6.03;;
3733;SDS011;1882;52.256;8.874;2023-09-19T01:52:47;12.67;;;6.33;;
3733;SDS011;1882;52.256;8.874;2023-09-19T01:55:32;11.63;;;6.13;;
3733;SDS011;1882;52.256;8.874;2023-09-19T02:00:45;12.03;;;5.90;;
3733;SDS011;1882;52.256;8.874;2023-09-19T02:03:13;13.00;;;6.57;;
3733;SDS011;1882;52.256;8.874;2023-09-19T02:05:41;11.43;;;5.03;;
3733;SDS011;1882;52.256;8.874;2023-09-19T02:08:11;16.33;;;5.23;;
3733;SDS011;1882;52.256;8.874;2023-09-19T02:10:38;12.13;;;5.50;;
3733;SDS011;1882;52.256;8.874;2023-09-19T02:13:05;18.77;;;6.40;;
3733;SDS011;1882;52.256;8.874;2023-09-19T02:15:32;10.37;;;5.87;;
3733;SDS011;1882;52.256;8.874;2023-09-19T02:18:00;11.13;;;5.10;;
3733;SDS011;1882;52.256;8.874;2023-09-19T02:20:29;10.70;;;5.30;;
3733;SDS011;1882;52.256;8.874;2023-09-19T02:22:56;11.53;;;5.17;;
3733;SDS011;1882;52.256;8.874;2023-09-19T02:25:25;16.53;;;5.40;;
3733;SDS011;1882;52.256;8.874;2023-09-19T02:27:53;14.93;;;4.67;;
3733;SDS011;1882;52.256;8.874;2023-09-19T02:30:32;13.07;;;5.10;;
3733;SDS011;1882;52.256;8.874;2023-09-19T02:32:59;12.07;;;5.20;;
3733;SDS011;1882;52.256;8.874;2023-09-19T02:35:34;11.73;;;4.57;;
3733;SDS011;1882;52.256;8.874;2023-09-19T02:38:02;9.40;;;4.53;;
3733;SDS011;1882;52.256;8.874;2023-09-19T02:40:42;11.70;;;4.50;;
3733;SDS011;1882;52.256;8.874;2023-09-19T02:43:09;14.67;;;4.90;;
3733;SDS011;1882;52.256;8.874;2023-09-19T02:45:36;12.70;;;5.03;;
3733;SDS011;1882;52.256;8.874;2023-09-19T02:48:03;13.40;;;4.30;;
3733;SDS011;1882;52.256;8.874;2023-09-19T02:53:01;12.33;;;4.93;;
3733;SDS011;1882;52.256;8.874;2023-09-19T02:55:33;12.00;;;5.23;;
3733;SDS011;1882;52.256;8.874;2023-09-19T02:58:06;12.40;;;4.80;;
3733;SDS011;1882;52.256;8.874;2023-09-19T03:00:41;16.53;;;4.97;;
3733;SDS011;1882;52.256;8.874;2023-09-19T03:03:12;14.90;;;5.13;;
3733;SDS011;1882;52.256;8.874;2023-09-19T03:05:39;11.63;;;4.77;;
3733;SDS011;1882;52.256;8.874;2023-09-19T03:08:06;15.73;;;4.97;;
3733;SDS011;1882;52.256;8.874;2023-09-19T03:10:33;32.03;;;5.00;;
3733;SDS011;1882;52.256;8.874;2023-09-19T03:13:00;11.87;;;5.03;;
3733;SDS011;1882;52.256;8.874;2023-09-19T03:15:32;10.47;;;4.70;;
3733;SDS011;1882;52.256;8.874;2023-09-19T03:18:05;12.33;;;4.40;;
3733;SDS011;1882;52.256;8.874;2023-09-19T03:20:33;13.43;;;4.50;;
3733;SDS011;1882;52.256;8.874;2023-09-19T03:23:07;14.83;;;5.20;;
3733;SDS011;1882;52.256;8.874;2023-09-19T03:25:35;9.73;;;3.77;;
3733;SDS011;1882;52.256;8.874;2023-09-19T03:28:03;14.47;;;4.77;;
3733;SDS011;1882;52.256;8.874;2023-09-19T03:30:36;11.57;;;4.07;;
3733;SDS011;1882;52.256;8.874;2023-09-19T03:33:04;12.10;;;4.40;;
3733;SDS011;1882;52.256;8.874;2023-09-19T03:35:32;8.10;;;4.30;;
3733;SDS011;1882;52.256;8.874;2023-09-19T03:38:05;10.63;;;4.87;;
3733;SDS011;1882;52.256;8.874;2023-09-19T03:40:32;10.80;;;4.33;;
3733;SDS011;1882;52.256;8.874;2023-09-19T03:43:02;10.77;;;4.50;;
3733;SDS011;1882;52.256;8.874;2023-09-19T03:45:39;20.87;;;5.33;;
3733;SDS011;1882;52.256;8.874;2023-09-19T03:48:10;13.47;;;4.27;;
3733;SDS011;1882;52.256;8.874;2023-09-19T03:50:37;10.90;;;4.70;;
3733;SDS011;1882;52.256;8.874;2023-09-19T03:53:13;13.97;;;5.20;;
3733;SDS011;1882;52.256;8.874;2023-09-19T03:55:40;16.50;;;5.07;;
3733;SDS011;1882;52.256;8.874;2023-09-19T03:58:11;16.33;;;4.90;;
3733;SDS011;1882;52.256;8.874;2023-09-19T04:00:40;19.70;;;5.07;;
3733;SDS011;1882;52.256;8.874;2023-09-19T04:03:07;15.03;;;4.70;;
3733;SDS011;1882;52.256;8.874;2023-09-19T04:05:35;14.37;;;5.10;;
3733;SDS011;1882;52.256;8.874;2023-09-19T04:08:02;14.63;;;5.43;;
3733;SDS011;1882;52.256;8.874;2023-09-19T04:10:31;24.63;;;5.00;;
3733;SDS011;1882;52.256;8.874;2023-09-19T04:12:58;14.00;;;4.80;;
3733;SDS011;1882;52.256;8.874;2023-09-19T04:15:28;9.43;;;4.50;;
3733;SDS011;1882;52.256;8.874;2023-09-19T04:18:03;12.20;;;5.00;;
3733;SDS011;1882;52.256;8.874;2023-09-19T04:20:30;15.30;;;4.83;;
3733;SDS011;1882;52.256;8.874;2023-09-19T04:23:02;17.23;;;5.37;;
3733;SDS011;1882;52.256;8.874;2023-09-19T04:25:32;12.20;;;4.83;;
3733;SDS011;1882;52.256;8.874;2023-09-19T04:28:03;15.10;;;5.37;;
3733;SDS011;1882;52.256;8.874;2023-09-19T04:30:30;15.00;;;5.10;;
3733;SDS011;1882;52.256;8.874;2023-09-19T04:35:51;13.03;;;4.30;;
3733;SDS011;1882;52.256;8.874;2023-09-19T04:38:18;13.47;;;5.03;;
3733;SDS011;1882;52.256;8.874;2023-09-19T04:40:46;11.57;;;4.53;;
3733;SDS011;1882;52.256;8.874;2023-09-19T04:43:19;10.73;;;4.90;;
3733;SDS011;1882;52.256;8.874;2023-09-19T04:45:49;10.60;;;4.43;;
3733;SDS011;1882;52.256;8.874;2023-09-19T04:48:15;30.37;;;4.70;;
3733;SDS011;1882;52.256;8.874;2023-09-19T04:50:43;14.63;;;4.50;;
3733;SDS011;1882;52.256;8.874;2023-09-19T04:53:15;11.30;;;4.30;;
3733;SDS011;1882;52.256;8.874;2023-09-19T04:55:49;11.43;;;3.70;;
3733;SDS011;1882;52.256;8.874;2023-09-19T04:58:30;14.60;;;4.30;;
3733;SDS011;1882;52.256;8.874;2023-09-19T05:00:57;14.43;;;4.67;;
3733;SDS011;1882;52.256;8.874;2023-09-19T05:03:31;14.40;;;3.87;;
3733;SDS011;1882;52.256;8.874;2023-09-19T05:09:28;13.47;;;4.73;;
3733;SDS011;1882;52.256;8.874;2023-09-19T05:12:21;17.73;;;5.13;;
3733;SDS011;1882;52.256;8.874;2023-09-19T05:21:35;14.73;;;4.17;;
3733;SDS011;1882;52.256;8.874;2023-09-19T05:24:06;18.27;;;4.30;;
3733;SDS011;1882;52.256;8.874;2023-09-19T05:26:45;15.30;;;4.50;;
3733;SDS011;1882;52.256;8.874;2023-09-19T05:29:15;14.27;;;4.67;;
3733;SDS011;1882;52.256;8.874;2023-09-19T05:31:54;14.03;;;4.10;;
3733;SDS011;1882;52.256;8.874;2023-09-19T05:40:29;12.40;;;4.03;;
3733;SDS011;1882;52.256;8.874;2023-09-19T05:43:04;14.60;;;4.20;;
3733;SDS011;1882;52.256;8.874;2023-09-19T05:53:30;12.43;;;4.27;;
3733;SDS011;1882;52.256;8.874;2023-09-19T05:55:59;10.70;;;3.13;;
3733;SDS011;1882;52.256;8.874;2023-09-19T05:58:27;10.97;;;3.43;;
3733;SDS011;1882;52.256;8.874;2023-09-19T06:01:39;12.53;;;3.67;;
3733;SDS011;1882;52.256;8.874;2023-09-19T06:04:12;12.20;;;3.67;;
3733;SDS011;1882;52.256;8.874;2023-09-19T06:14:29;13.53;;;3.57;;
3733;SDS011;1882;52.256;8.874;2023-09-19T06:17:09;11.00;;;3.63;;
3733;SDS011;1882;52.256;8.874;2023-09-19T06:19:41;13.73;;;3.40;;
3733;SDS011;1882;52.256;8.874;2023-09-19T06:22:15;14.03;;;2.90;;
3733;SDS011;1882;52.256;8.874;2023-09-19T06:24:54;10.60;;;2.97;;
3733;SDS011;1882;52.256;8.874;2023-09-19T06:27:22;12.53;;;3.43;;
3733;SDS011;1882;52.256;8.874;2023-09-19T06:29:56;11.30;;;3.40;;
3733;SDS011;1882;52.256;8.874;2023-09-19T06:32:29;12.37;;;3.37;;
3733;SDS011;1882;52.256;8.874;2023-09-19T06:34:56;11.33;;;3.27;;
3733;SDS011;1882;52.256;8.874;2023-09-19T06:37:58;14.20;;;3.13;;
3733;SDS011;1882;52.256;8.874;2023-09-19T06:41:45;12.93;;;3.10;;
3733;SDS011;1882;52.256;8.874;2023-09-19T06:45:41;15.73;;;3.77;;
3733;SDS011;1882;52.256;8.874;2023-09-19T06:48:08;12.43;;;3.83;;
3733;SDS011;1882;52.256;8.874;2023-09-19T06:50:36;10.67;;;3.03;;
3733;SDS011;1882;52.256;8.874;2023-09-19T06:53:14;9.00;;;2.87;;
3733;SDS011;1882;52.256;8.874;2023-09-19T06:55:41;8.33;;;3.10;;
3733;SDS011;1882;52.256;8.874;2023-09-19T06:58:10;10.20;;;2.93;;
3733;SDS011;1882;52.256;8.874;2023-09-19T07:00:48;10.73;;;2.47;;
3733;SDS011;1882;52.256;8.874;2023-09-19T07:03:16;12.23;;;3.00;;
3733;SDS011;1882;52.256;8.874;2023-09-19T07:06:01;7.47;;;3.20;;
3733;SDS011;1882;52.256;8.874;2023-09-19T07:09:55;11.37;;;3.00;;
3733;SDS011;1882;52.256;8.874;2023-09-19T07:12:26;11.80;;;3.13;;
3733;SDS011;1882;52.256;8.874;2023-09-19T07:14:53;9.07;;;3.00;;
3733;SDS011;1882;52.256;8.874;2023-09-19T07:17:33;11.10;;;2.80;;
3733;SDS011;1882;52.256;8.874;2023-09-19T07:20:16;10.60;;;3.60;;
3733;SDS011;1882;52.256;8.874;2023-09-19T07:22:42;13.57;;;3.17;;
3733;SDS011;1882;52.256;8.874;2023-09-19T07:25:20;11.80;;;3.07;;
3733;SDS011;1882;52.256;8.874;2023-09-19T07:28:06;11.07;;;2.57;;
3733;SDS011;1882;52.256;8.874;2023-09-19T07:30:36;8.80;;;3.10;;
3733;SDS011;1882;52.256;8.874;2023-09-19T07:33:12;15.80;;;3.13;;
3733;SDS011;1882;52.256;8.874;2023-09-19T07:35:45;5.60;;;2.47;;
3733;SDS011;1882;52.256;8.874;2023-09-19T07:38:18;6.90;;;2.57;;
3733;SDS011;1882;52.256;8.874;2023-09-19T07:40:44;12.30;;;2.83;;
3733;SDS011;1882;52.256;8.874;2023-09-19T07:43:11;5.77;;;2.40;;
3733;SDS011;1882;52.256;8.874;2023-09-19T07:45:46;13.17;;;3.17;;
3733;SDS011;1882;52.256;8.874;2023-09-19T07:52:40;7.07;;;2.70;;
3733;SDS011;1882;52.256;8.874;2023-09-19T08:02:21;10.03;;;2.80;;
3733;SDS011;1882;52.256;8.874;2023-09-19T08:04:56;13.07;;;2.60;;
3733;SDS011;1882;52.256;8.874;2023-09-19T08:07:32;6.33;;;2.40;;
3733;SDS011;1882;52.256;8.874;2023-09-19T08:10:07;13.73;;;2.93;;
3733;SDS011;1882;52.256;8.874;2023-09-19T08:15:53;13.37;;;3.07;;
3733;SDS011;1882;52.256;8.874;2023-09-19T08:18:20;13.33;;;2.83;;
3733;SDS011;1882;52.256;8.874;2023-09-19T08:21:03;9.27;;;2.53;;
3733;SDS011;1882;52.256;8.874;2023-09-19T08:23:32;7.83;;;3.10;;
3733;SDS011;1882;52.256;8.874;2023-09-19T08:26:08;10.30;;;2.57;;
3733;SDS011;1882;52.256;8.874;2023-09-19T08:28:35;11.63;;;2.70;;
3733;SDS011;1882;52.256;8.874;2023-09-19T08:31:12;11.80;;;2.60;;
3733;SDS011;1882;52.256;8.874;2023-09-19T08:36:18;10.27;;;2.87;;
3733;SDS011;1882;52.256;8.874;2023-09-19T08:38:50;7.53;;;2.27;;
3733;SDS011;1882;52.256;8.874;2023-09-19T08:41:17;14.67;;;3.40;;
3733;SDS011;1882;52.256;8.874;2023-09-19T08:43:58;8.10;;;2.70;;
3733;SDS011;1882;52.256;8.874;2023-09-19T08:46:30;12.33;;;3.00;;
3733;SDS011;1882;52.256;8.874;2023-09-19T08:49:27;10.73;;;2.90;;
3733;SDS011;1882;52.256;8.874;2023-09-19T08:52:19;6.67;;;2.83;;
3733;SDS011;1882;52.256;8.874;2023-09-19T08:58:06;6.87;;;2.90;;
3733;SDS011;1882;52.256;8.874;2023-09-19T09:00:58;11.23;;;3.20;;
3733;SDS011;1882;52.256;8.874;2023-09-19T09:03:30;17.57;;;3.50;;
3733;SDS011;1882;52.256;8.874;2023-09-19T09:06:25;12.73;;;3.20;;
3733;SDS011;1882;52.256;8.874;2023-09-19T09:08:52;8.23;;;2.60;;
3733;SDS011;1882;52.256;8.874;2023-09-19T09:11:22;16.63;;;3.70;;
3733;SDS011;1882;52.256;8.874;2023-09-19T09:16:45;13.90;;;2.90;;
3733;SDS011;1882;52.256;8.874;2023-09-19T09:19:12;6.93;;;2.93;;
3733;SDS011;1882;52.256;8.874;2023-09-19T09:21:51;11.60;;;3.50;;
3733;SDS011;1882;52.256;8.874;2023-09-19T09:24:31;12.00;;;3.67;;
3733;SDS011;1882;52.256;8.874;2023-09-19T09:27:29;13.77;;;3.73;;
3733;SDS011;1882;52.256;8.874;2023-09-19T09:30:06;13.47;;;3.53;;
3733;SDS011;1882;52.256;8.874;2023-09-19T09:32:34;9.13;;;3.70;;
3733;SDS011;1882;52.256;8.874;2023-09-19T09:35:07;11.87;;;3.73;;
3733;SDS011;1882;52.256;8.874;2023-09-19T09:37:37;11.40;;;3.63;;
3733;SDS011;1882;52.256;8.874;2023-09-19T09:48:19;8.07;;;3.60;;
3733;SDS011;1882;52.256;8.874;2023-09-19T09:50:58;6.50;;;4.00;;
3733;SDS011;1882;52.256;8.874;2023-09-19T10:02:38;10.73;;;4.80;;
3733;SDS011;1882;52.256;8.874;2023-09-19T10:09:47;10.13;;;4.50;;
3733;SDS011;1882;52.256;8.874;2023-09-19T10:12:15;10.53;;;3.93;;
3733;SDS011;1882;52.256;8.874;2023-09-19T10:17:47;9.57;;;4.00;;
3733;SDS011;1882;52.256;8.874;2023-09-19T10:52:54;8.80;;;3.53;;
3733;SDS011;1882;52.256;8.874;2023-09-19T10:55:34;8.37;;;3.10;;
3733;SDS011;1882;52.256;8.874;2023-09-19T10:58:08;10.43;;;3.20;;
3733;SDS011;1882;52.256;8.874;2023-09-19T11:00:53;8.57;;;3.23;;
3733;SDS011;1882;52.256;8.874;2023-09-19T11:03:31;7.90;;;3.60;;
3733;SDS011;1882;52.256;8.874;2023-09-19T11:08:56;8.40;;;3.30;;
3733;SDS011;1882;52.256;8.874;2023-09-19T11:40:10;11.17;;;3.40;;
3733;SDS011;1882;52.256;8.874;2023-09-19T11:42:54;10.00;;;3.33;;
3733;SDS011;1882;52.256;8.874;2023-09-19T11:48:10;9.17;;;3.30;;
3733;SDS011;1882;52.256;8.874;2023-09-19T11:50:47;9.43;;;3.33;;
3733;SDS011;1882;52.256;8.874;2023-09-19T11:53:31;8.07;;;3.90;;
3733;SDS011;1882;52.256;8.874;2023-09-19T11:56:05;7.40;;;3.30;;
3733;SDS011;1882;52.256;8.874;2023-09-19T11:58:37;9.00;;;3.10;;
3733;SDS011;1882;52.256;8.874;2023-09-19T12:01:10;10.83;;;3.33;;
3733;SDS011;1882;52.256;8.874;2023-09-19T12:04:11;11.93;;;3.30;;
3733;SDS011;1882;52.256;8.874;2023-09-19T12:06:41;8.43;;;3.10;;
3733;SDS011;1882;52.256;8.874;2023-09-19T12:09:19;8.30;;;2.90;;
3733;SDS011;1882;52.256;8.874;2023-09-19T12:12:31;13.07;;;2.80;;
3733;SDS011;1882;52.256;8.874;2023-09-19T12:14:59;6.83;;;2.63;;
3733;SDS011;1882;52.256;8.874;2023-09-19T12:17:37;7.50;;;3.10;;
3733;SDS011;1882;52.256;8.874;2023-09-19T12:20:06;9.37;;;3.33;;
3733;SDS011;1882;52.256;8.874;2023-09-19T12:22:49;10.23;;;2.90;;
3733;SDS011;1882;52.256;8.874;2023-09-19T12:29:29;9.60;;;2.90;;
3733;SDS011;1882;52.256;8.874;2023-09-19T12:32:14;9.43;;;2.80;;
3733;SDS011;1882;52.256;8.874;2023-09-19T12:34:52;6.63;;;3.03;;
3733;SDS011;1882;52.256;8.874;2023-09-19T12:37:21;12.93;;;2.80;;
3733;SDS011;1882;52.256;8.874;2023-09-19T12:39:50;7.97;;;2.73;;
3733;SDS011;1882;52.256;8.874;2023-09-19T12:42:21;9.80;;;3.30;;
3733;SDS011;1882;52.256;8.874;2023-09-19T12:44:52;10.77;;;3.23;;
3733;SDS011;1882;52.256;8.874;2023-09-19T12:47:33;9.57;;;2.83;;
3733;SDS011;1882;52.256;8.874;2023-09-19T12:52:46;8.63;;;3.20;;
3733;SDS011;1882;52.256;8.874;2023-09-19T12:55:22;9.97;;;3.20;;
3733;SDS011;1882;52.256;8.874;2023-09-19T12:58:16;6.60;;;2.60;;
3733;SDS011;1882;52.256;8.874;2023-09-19T13:00:57;8.43;;;2.60;;
3733;SDS011;1882;52.256;8.874;2023-09-19T13:03:38;8.40;;;2.40;;
3733;SDS011;1882;52.256;8.874;2023-09-19T13:06:35;7.00;;;2.80;;
3733;SDS011;1882;52.256;8.874;2023-09-19T13:09:12;7.53;;;2.77;;
3733;SDS011;1882;52.256;8.874;2023-09-19T13:15:51;6.27;;;2.60;;
3733;SDS011;1882;52.256;8.874;2023-09-19T13:18:18;12.50;;;3.30;;
3733;SDS011;1882;52.256;8.874;2023-09-19T13:21:09;7.23;;;3.00;;
3733;SDS011;1882;52.256;8.874;2023-09-19T13:23:55;7.27;;;3.03;;
3733;SDS011;1882;52.256;8.874;2023-09-19T13:26:49;9.63;;;3.10;;
3733;SDS011;1882;52.256;8.874;2023-09-19T13:29:20;9.93;;;2.90;;
3733;SDS011;1882;52.256;8.874;2023-09-19T13:32:13;8.10;;;2.83;;
3733;SDS011;1882;52.256;8.874;2023-09-19T13:34:44;7.87;;;2.80;;
3733;SDS011;1882;52.256;8.874;2023-09-19T13:37:26;5.90;;;2.87;;
3733;SDS011;1882;52.256;8.874;2023-09-19T13:39:56;14.53;;;2.60;;
3733;SDS011;1882;52.256;8.874;2023-09-19T13:42:24;6.03;;;2.90;;
3733;SDS011;1882;52.256;8.874;2023-09-19T13:44:59;9.10;;;2.50;;
3733;SDS011;1882;52.256;8.874;2023-09-19T13:47:27;7.90;;;3.37;;
3733;SDS011;1882;52.256;8.874;2023-09-19T13:49:53;7.13;;;2.70;;
3733;SDS011;1882;52.256;8.874;2023-09-19T13:52:33;4.10;;;2.30;;
3733;SDS011;1882;52.256;8.874;2023-09-19T13:55:00;9.63;;;2.90;;
3733;SDS011;1882;52.256;8.874;2023-09-19T13:57:31;5.60;;;2.30;;
3733;SDS011;1882;52.256;8.874;2023-09-19T14:00:00;6.67;;;3.00;;
3733;SDS011;1882;52.256;8.874;2023-09-19T14:02:26;8.13;;;2.67;;
3733;SDS011;1882;52.256;8.874;2023-09-19T14:04:54;11.57;;;2.90;;
3733;SDS011;1882;52.256;8.874;2023-09-19T14:07:21;9.87;;;2.70;;
3733;SDS011;1882;52.256;8.874;2023-09-19T14:09:48;6.20;;;2.30;;
3733;SDS011;1882;52.256;8.874;2023-09-19T14:12:19;7.03;;;2.50;;
3733;SDS011;1882;52.256;8.874;2023-09-19T14:14:46;6.87;;;2.40;;
3733;SDS011;1882;52.256;8.874;2023-09-19T14:17:12;6.10;;;2.60;;
3733;SDS011;1882;52.256;8.874;2023-09-19T14:19:47;5.33;;;2.33;;
3733;SDS011;1882;52.256;8.874;2023-09-19T14:22:14;6.00;;;2.50;;
3733;SDS011;1882;52.256;8.874;2023-09-19T14:24:41;10.70;;;2.90;;
3733;SDS011;1882;52.256;8.874;2023-09-19T14:27:26;7.63;;;2.50;;
3733;SDS011;1882;52.256;8.874;2023-09-19T14:29:53;9.97;;;2.30;;
3733;SDS011;1882;52.256;8.874;2023-09-19T14:32:22;7.20;;;2.53;;
3733;SDS011;1882;52.256;8.874;2023-09-19T14:34:52;6.70;;;2.27;;
3733;SDS011;1882;52.256;8.874;2023-09-19T14:37:19;5.83;;;2.13;;
3733;SDS011;1882;52.256;8.874;2023-09-19T14:39:52;8.80;;;2.47;;
3733;SDS011;1882;52.256;8.874;2023-09-19T14:42:22;10.60;;;2.77;;
3733;SDS011;1882;52.256;8.874;2023-09-19T14:44:49;5.27;;;2.20;;
3733;SDS011;1882;52.256;8.874;2023-09-19T14:47:20;4.70;;;2.50;;
3733;SDS011;1882;52.256;8.874;2023-09-19T14:49:54;5.40;;;2.20;;
3733;SDS011;1882;52.256;8.874;2023-09-19T14:52:24;5.17;;;2.60;;
3733;SDS011;1882;52.256;8.874;2023-09-19T14:55:00;4.33;;;2.10;;
3733;SDS011;1882;52.256;8.874;2023-09-19T15:00:31;6.73;;;2.53;;
3733;SDS011;1882;52.256;8.874;2023-09-19T15:03:08;8.83;;;2.40;;
3733;SDS011;1882;52.256;8.874;2023-09-19T15:05:35;7.93;;;2.70;;
3733;SDS011;1882;52.256;8.874;2023-09-19T15:08:02;6.87;;;2.47;;
3733;SDS011;1882;52.256;8.874;2023-09-19T15:10:29;8.53;;;2.40;;
3733;SDS011;1882;52.256;8.874;2023-09-19T15:13:11;6.77;;;2.33;;
3733;SDS011;1882;52.256;8.874;2023-09-19T15:15:47;9.80;;;3.00;;
3733;SDS011;1882;52.256;8.874;2023-09-19T15:18:31;7.63;;;2.40;;
3733;SDS011;1882;52.256;8.874;2023-09-19T15:21:00;8.70;;;2.70;;
3733;SDS011;1882;52.256;8.874;2023-09-19T15:23:30;7.10;;;2.10;;
3733;SDS011;1882;52.256;8.874;2023-09-19T15:25:58;6.50;;;2.30;;
3733;SDS011;1882;52.256;8.874;2023-09-19T15:28:25;9.10;;;2.20;;
3733;SDS011;1882;52.256;8.874;2023-09-19T15:31:02;6.80;;;2.30;;
3733;SDS011;1882;52.256;8.874;2023-09-19T15:33:33;6.67;;;2.57;;
3733;SDS011;1882;52.256;8.874;2023-09-19T15:36:03;5.60;;;2.40;;
3733;SDS011;1882;52.256;8.874;2023-09-19T15:38:31;6.33;;;2.37;;
3733;SDS011;1882;52.256;8.874;2023-09-19T15:41:01;7.50;;;2.37;;
3733;SDS011;1882;52.256;8.874;2023-09-19T15:43:30;5.83;;;2.77;;
3733;SDS011;1882;52.256;8.874;2023-09-19T15:46:00;5.97;;;2.30;;
3733;SDS011;1882;52.256;8.874;2023-09-19T15:48:33;5.57;;;2.83;;
3733;SDS011;1882;52.256;8.874;2023-09-19T15:51:04;5.00;;;2.67;;
3733;SDS011;1882;52.256;8.874;2023-09-19T15:53:41;6.70;;;2.70;;
3733;SDS011;1882;52.256;8.874;2023-09-19T15:56:16;5.20;;;2.93;;
3733;SDS011;1882;52.256;8.874;2023-09-19T16:01:42;7.50;;;2.27;;
3733;SDS011;1882;52.256;8.874;2023-09-19T16:04:17;5.13;;;2.20;;
3733;SDS011;1882;52.256;8.874;2023-09-19T16:06:44;5.03;;;2.20;;
3733;SDS011;1882;52.256;8.874;2023-09-19T16:09:11;4.93;;;2.43;;
3733;SDS011;1882;52.256;8.874;2023-09-19T16:11:38;5.40;;;2.20;;
3733;SDS011;1882;52.256;8.874;2023-09-19T16:17:53;9.90;;;2.40;;
3733;SDS011;1882;52.256;8.874;2023-09-19T16:20:32;4.20;;;2.00;;
3733;SDS011;1882;52.256;8.874;2023-09-19T16:23:15;2.70;;;1.80;;
3733;SDS011;1882;52.256;8.874;2023-09-19T16:26:09;7.17;;;2.20;;
3733;SDS011;1882;52.256;8.874;2023-09-19T16:28:57;6.70;;;2.40;;
3733;SDS011;1882;52.256;8.874;2023-09-19T16:31:29;4.47;;;1.73;;
3733;SDS011;1882;52.256;8.874;2023-09-19T16:34:02;7.40;;;2.00;;
3733;SDS011;1882;52.256;8.874;2023-09-19T16:36:29;7.70;;;2.00;;
3733;SDS011;1882;52.256;8.874;2023-09-19T16:39:16;6.93;;;1.97;;
3733;SDS011;1882;52.256;8.874;2023-09-19T16:42:00;3.33;;;1.70;;
3733;SDS011;1882;52.256;8.874;2023-09-19T16:44:43;4.50;;;1.83;;
3733;SDS011;1882;52.256;8.874;2023-09-19T16:47:10;5.73;;;1.70;;
3733;SDS011;1882;52.256;8.874;2023-09-19T16:49:50;3.77;;;1.70;;
3733;SDS011;1882;52.256;8.874;2023-09-19T16:52:18;6.40;;;1.83;;
3733;SDS011;1882;52.256;8.874;2023-09-19T16:54:49;8.53;;;1.60;;
3733;SDS011;1882;52.256;8.874;2023-09-19T16:57:18;4.53;;;1.80;;
3733;SDS011;1882;52.256;8.874;2023-09-19T16:59:45;8.10;;;1.73;;
3733;SDS011;1882;52.256;8.874;2023-09-19T17:02:11;5.23;;;1.90;;
3733;SDS011;1882;52.256;8.874;2023-09-19T17:04:44;6.80;;;1.73;;
3733;SDS011;1882;52.256;8.874;2023-09-19T17:07:12;5.20;;;1.70;;
3733;SDS011;1882;52.256;8.874;2023-09-19T17:09:40;5.70;;;1.53;;
3733;SDS011;1882;52.256;8.874;2023-09-19T17:12:09;4.93;;;1.63;;
3733;SDS011;1882;52.256;8.874;2023-09-19T17:14:39;9.10;;;1.83;;
3733;SDS011;1882;52.256;8.874;2023-09-19T17:17:06;6.30;;;1.67;;
3733;SDS011;1882;52.256;8.874;2023-09-19T17:19:35;1.77;;;1.37;;
3733;SDS011;1882;52.256;8.874;2023-09-19T17:22:13;2.40;;;1.63;;
3733;SDS011;1882;52.256;8.874;2023-09-19T17:24:42;6.60;;;1.50;;
3733;SDS011;1882;52.256;8.874;2023-09-19T17:27:21;4.23;;;1.80;;
3733;SDS011;1882;52.256;8.874;2023-09-19T17:29:47;6.03;;;1.93;;
3733;SDS011;1882;52.256;8.874;2023-09-19T17:32:14;2.63;;;1.50;;
3733;SDS011;1882;52.256;8.874;2023-09-19T17:34:55;6.63;;;1.67;;
3733;SDS011;1882;52.256;8.874;2023-09-19T17:37:35;5.10;;;1.80;;
3733;SDS011;1882;52.256;8.874;2023-09-19T17:40:07;2.70;;;1.60;;
3733;SDS011;1882;52.256;8.874;2023-09-19T17:42:39;5.83;;;1.97;;
3733;SDS011;1882;52.256;8.874;2023-09-19T17:45:11;3.10;;;1.70;;
3733;SDS011;1882;52.256;8.874;2023-09-19T17:47:41;3.00;;;1.50;;
3733;SDS011;1882;52.256;8.874;2023-09-19T17:50:09;4.43;;;1.57;;
3733;SDS011;1882;52.256;8.874;2023-09-19T17:52:39;2.50;;;1.40;;
3733;SDS011;1882;52.256;8.874;2023-09-19T17:55:10;2.17;;;1.70;;
3733;SDS011;1882;52.256;8.874;2023-09-19T17:57:42;2.70;;;1.70;;
3733;SDS011;1882;52.256;8.874;2023-09-19T18:00:09;4.27;;;1.57;;
3733;SDS011;1882;52.256;8.874;2023-09-19T18:02:37;4.10;;;2.07;;
3733;SDS011;1882;52.256;8.874;2023-09-19T18:05:04;7.37;;;1.80;;
3733;SDS011;1882;52.256;8.874;2023-09-19T18:07:42;3.30;;;1.40;;
3733;SDS011;1882;52.256;8.874;2023-09-19T18:10:09;3.60;;;1.67;;
3733;SDS011;1882;52.256;8.874;2023-09-19T18:12:37;2.57;;;1.60;;
3733;SDS011;1882;52.256;8.874;2023-09-19T18:15:12;5.23;;;1.77;;
3733;SDS011;1882;52.256;8.874;2023-09-19T18:17:39;3.57;;;1.47;;
3733;SDS011;1882;52.256;8.874;2023-09-19T18:20:15;2.20;;;1.53;;
3733;SDS011;1882;52.256;8.874;2023-09-19T18:22:43;2.93;;;1.63;;
3733;SDS011;1882;52.256;8.874;2023-09-19T18:25:13;2.50;;;1.70;;
3733;SDS011;1882;52.256;8.874;2023-09-19T18:27:48;3.93;;;1.73;;
3733;SDS011;1882;52.256;8.874;2023-09-19T18:30:15;2.90;;;1.40;;
3733;SDS011;1882;52.256;8.874;2023-09-19T18:32:42;4.03;;;1.50;;
3733;SDS011;1882;52.256;8.874;2023-09-19T18:35:09;4.90;;;1.90;;
3733;SDS011;1882;52.256;8.874;2023-09-19T18:37:39;5.83;;;1.60;;
3733;SDS011;1882;52.256;8.874;2023-09-19T18:40:06;6.80;;;1.70;;
3733;SDS011;1882;52.256;8.874;2023-09-19T18:45:19;3.30;;;1.70;;
3733;SDS011;1882;52.256;8.874;2023-09-19T18:48:18;4.43;;;1.90;;
3733;SDS011;1882;52.256;8.874;2023-09-19T18:55:07;2.53;;;1.63;;
3733;SDS011;1882;52.256;8.874;2023-09-19T18:57:38;7.23;;;1.97;;
3733;SDS011;1882;52.256;8.874;2023-09-19T19:00:21;11.47;;;1.80;;
3733;SDS011;1882;52.256;8.874;2023-09-19T19:03:02;5.17;;;1.73;;
3733;SDS011;1882;52.256;8.874;2023-09-19T19:05:45;4.00;;;1.60;;
3733;SDS011;1882;52.256;8.874;2023-09-19T19:08:12;4.70;;;1.60;;
3733;SDS011;1882;52.256;8.874;2023-09-19T19:10:39;2.90;;;1.57;;
3733;SDS011;1882;52.256;8.874;2023-09-19T19:13:07;6.20;;;1.60;;